Time;durP1;ratioP1;P1;durP2;ratioP2;P2;SDS_P1;SDS_P2;PMS_P1;PMS_P2;Temp;Humidity;BMP_temperature;BMP_pressure;BME280_temperature;BME280_humidity;BME280_pressure;Samples;Min_cycle;Max_cycle;Signal;HPM_P1;HPM_P2
2022/09/21 00:02:04;;;;;;;;;2.60;2.60;31.50;99.90;;;;;;4976620;28;8896;-60
2022/09/21 00:04:34;;;;;;;;;1.00;1.00;31.50;99.90;;;;;;4960396;28;9008;-64
2022/09/21 00:07:05;;;;;;;;;0.80;0.80;31.50;99.90;;;;;;4980838;28;9015;-62
2022/09/21 00:09:37;;;;;;;;;1.00;1.00;31.50;99.90;;;;;;4976075;28;8903;-60
2022/09/21 00:12:08;;;;;;;;;1.00;1.00;31.40;99.90;;;;;;4979831;28;9673;-60
2022/09/21 00:14:38;;;;;;;;;1.80;1.80;31.30;99.90;;;;;;4974308;28;8865;-59
2022/09/21 00:17:12;;;;;;;;;0.60;0.60;31.30;99.90;;;;;;4977352;28;8933;-60
2022/09/21 00:19:42;;;;;;;;;1.00;1.00;31.30;99.90;;;;;;4975029;28;8880;-63
2022/09/21 00:22:16;;;;;;;;;2.00;2.00;31.20;99.90;;;;;;4975078;28;10166;-64
2022/09/21 00:24:47;;;;;;;;;1.40;1.40;31.20;99.90;;;;;;4979289;28;8871;-59
2022/09/21 00:27:17;;;;;;;;;1.40;1.40;31.10;99.90;;;;;;4978418;28;8867;-59
2022/09/21 00:29:47;;;;;;;;;1.00;1.00;31.10;99.90;;;;;;4991872;28;9036;-61
2022/09/21 00:32:19;;;;;;;;;1.00;1.00;31.10;99.90;;;;;;4975265;28;8869;-62
2022/09/21 00:34:50;;;;;;;;;1.00;1.00;31.00;99.90;;;;;;4976960;28;8881;-62
2022/09/21 00:37:27;;;;;;;;;1.60;1.60;30.90;99.90;;;;;;4978251;28;9951;-61
2022/09/21 00:39:58;;;;;;;;;1.00;1.00;30.90;99.90;;;;;;4972808;28;8878;-61
2022/09/21 00:42:31;;;;;;;;;1.00;1.00;30.90;99.90;;;;;;4982510;28;8951;-63
2022/09/21 00:45:04;;;;;;;;;1.00;1.00;30.80;99.90;;;;;;4976453;28;9608;-62
2022/09/21 00:47:39;;;;;;;;;2.00;1.00;30.80;99.90;;;;;;4975388;28;8892;-62
2022/09/21 00:50:15;;;;;;;;;2.00;1.00;30.70;99.90;;;;;;4974495;28;8880;-60
2022/09/21 00:52:53;;;;;;;;;2.00;2.00;30.70;99.90;;;;;;4974856;28;10018;-60
2022/09/21 00:55:40;;;;;;;;;1.40;1.40;30.70;99.90;;;;;;4971725;28;8996;-60
2022/09/21 00:58:19;;;;;;;;;0.00;0.00;30.60;99.90;;;;;;4973793;28;8905;-57
2022/09/21 01:00:49;;;;;;;;;1.00;1.00;30.60;99.90;;;;;;4979794;28;8834;-59
2022/09/21 01:03:21;;;;;;;;;1.00;1.00;30.50;99.90;;;;;;4989898;28;8870;-59
2022/09/21 01:05:56;;;;;;;;;1.00;1.00;30.50;99.90;;;;;;4975901;28;9549;-59
2022/09/21 01:08:30;;;;;;;;;1.00;1.00;30.40;99.90;;;;;;4975947;28;8913;-59
2022/09/21 01:11:31;;;;;;;;;1.00;1.00;30.40;99.90;;;;;;4972549;28;8979;-60
2022/09/21 01:14:41;;;;;;;;;1.20;1.20;30.40;99.90;;;;;;4976082;28;8865;-59
2022/09/21 01:17:30;;;;;;;;;1.00;1.00;30.40;99.90;;;;;;4961913;28;8870;-59
2022/09/21 01:20:29;;;;;;;;;2.00;1.00;30.40;99.90;;;;;;4975129;28;8854;-60
2022/09/21 01:23:14;;;;;;;;;2.00;2.00;30.30;99.90;;;;;;4974829;28;8859;-60
2022/09/21 01:26:24;;;;;;;;;1.20;1.20;30.30;99.90;;;;;;4974623;28;8898;-60
2022/09/21 01:29:19;;;;;;;;;1.00;1.00;30.20;99.90;;;;;;4973193;28;8867;-62
2022/09/21 01:31:59;;;;;;;;;1.00;1.00;30.20;99.90;;;;;;4977236;28;8871;-62
2022/09/21 01:34:59;;;;;;;;;1.00;1.00;30.10;99.90;;;;;;4974815;28;8851;-62
2022/09/21 01:37:48;;;;;;;;;1.00;1.00;30.10;99.90;;;;;;4977613;28;8881;-62
2022/09/21 01:40:42;;;;;;;;;1.00;1.00;30.10;99.90;;;;;;4973304;28;8873;-61
2022/09/21 01:43:24;;;;;;;;;1.00;1.00;30.00;99.90;;;;;;4976048;28;9561;-61
2022/09/21 01:46:00;;;;;;;;;2.80;1.00;30.00;99.90;;;;;;4979513;28;9938;-61
2022/09/21 01:48:37;;;;;;;;;1.20;1.20;29.90;99.90;;;;;;4972409;28;8840;-61
2022/09/21 01:51:15;;;;;;;;;2.20;2.00;29.90;99.90;;;;;;4975268;28;8897;-61
2022/09/21 01:53:56;;;;;;;;;1.60;1.60;29.90;99.90;;;;;;4976366;28;8869;-62
2022/09/21 01:56:50;;;;;;;;;1.00;1.00;29.90;99.90;;;;;;4974951;28;8857;-62
2022/09/21 01:59:41;;;;;;;;;1.00;1.00;29.90;99.90;;;;;;4974102;28;8843;-61
2022/09/21 02:02:40;;;;;;;;;1.00;1.00;29.90;99.90;;;;;;4969776;28;9716;-62
2022/09/21 02:05:14;;;;;;;;;1.00;1.00;29.80;99.90;;;;;;4987651;28;8909;-62
2022/09/21 02:07:46;;;;;;;;;1.00;1.00;29.80;99.90;;;;;;4979718;28;8893;-62
2022/09/21 02:10:39;;;;;;;;;2.60;2.60;29.80;99.90;;;;;;4962850;28;8882;-63
2022/09/21 02:13:15;;;;;;;;;1.00;1.00;29.80;99.90;;;;;;4970994;28;8835;-62
2022/09/21 02:16:02;;;;;;;;;1.00;1.00;29.80;99.90;;;;;;4971537;28;8838;-63
2022/09/21 02:19:11;;;;;;;;;1.00;1.00;29.60;99.90;;;;;;4970616;28;8865;-62
2022/09/21 02:21:59;;;;;;;;;2.00;2.00;29.60;99.90;;;;;;4973606;28;8850;-64
2022/09/21 02:24:28;;;;;;;;;1.20;1.20;29.60;99.90;;;;;;4971662;28;8851;-61
2022/09/21 02:27:37;;;;;;;;;3.00;1.00;29.60;99.90;;;;;;4973285;28;8893;-60
2022/09/21 02:30:16;;;;;;;;;2.40;2.40;29.50;99.90;;;;;;4974090;28;8852;-62
2022/09/21 02:33:03;;;;;;;;;1.00;1.00;29.50;99.90;;;;;;4974713;28;8934;-63
2022/09/21 02:35:36;;;;;;;;;1.00;1.00;29.50;99.90;;;;;;4984200;28;8843;-62
2022/09/21 02:38:45;;;;;;;;;1.00;1.00;29.40;99.90;;;;;;4988440;28;8927;-62
2022/09/21 02:41:37;;;;;;;;;2.00;2.00;29.50;99.90;;;;;;4972454;28;8834;-61
2022/09/21 02:44:11;;;;;;;;;1.00;1.00;29.40;99.90;;;;;;4971919;28;8851;-62
2022/09/21 02:46:53;;;;;;;;;2.00;2.00;29.40;99.90;;;;;;4971736;28;8873;-62
2022/09/21 02:49:50;;;;;;;;;1.00;1.00;29.30;99.90;;;;;;4972904;28;9036;-63
2022/09/21 02:52:25;;;;;;;;;1.40;1.40;29.30;99.90;;;;;;4974877;28;9556;-61
2022/09/21 02:55:01;;;;;;;;;0.60;0.60;29.30;99.90;;;;;;4985852;28;8858;-61
2022/09/21 02:57:35;;;;;;;;;1.00;1.00;29.20;99.90;;;;;;4988880;28;8858;-61
2022/09/21 03:00:07;;;;;;;;;1.00;1.00;29.20;99.90;;;;;;4971519;28;8838;-62
2022/09/21 03:02:40;;;;;;;;;2.00;2.00;29.20;99.90;;;;;;4976647;28;8866;-62
2022/09/21 03:05:12;;;;;;;;;1.00;1.00;29.10;99.90;;;;;;4973490;28;8893;-60
2022/09/21 03:07:43;;;;;;;;;2.40;1.40;29.10;99.90;;;;;;4976618;28;8869;-62
2022/09/21 03:10:13;;;;;;;;;2.00;2.00;29.00;99.90;;;;;;4975710;28;8859;-63
2022/09/21 03:12:45;;;;;;;;;1.00;1.00;29.00;99.90;;;;;;4978579;28;9641;-62
2022/09/21 03:15:17;;;;;;;;;2.00;2.00;29.00;99.90;;;;;;4976300;28;8846;-63
2022/09/21 03:17:48;;;;;;;;;1.00;1.00;29.00;99.90;;;;;;4975544;28;8934;-65
2022/09/21 03:20:19;;;;;;;;;1.00;1.00;28.90;99.90;;;;;;4976296;28;8871;-62
2022/09/21 03:22:51;;;;;;;;;1.40;1.40;28.90;99.90;;;;;;4977968;28;8862;-65
2022/09/21 03:25:22;;;;;;;;;1.20;1.20;28.90;99.90;;;;;;4978511;28;8877;-63
2022/09/21 03:27:54;;;;;;;;;2.80;2.80;28.90;99.90;;;;;;4980054;28;8863;-63
2022/09/21 03:30:31;;;;;;;;;1.00;1.00;28.90;99.90;;;;;;4976872;28;8857;-62
2022/09/21 03:33:04;;;;;;;;;0.80;0.80;28.70;99.90;;;;;;4974685;28;8886;-66
2022/09/21 03:35:36;;;;;;;;;1.60;1.00;28.70;99.90;;;;;;4986308;28;8842;-65
2022/09/21 03:38:11;;;;;;;;;1.00;1.00;28.70;99.90;;;;;;4977104;28;8910;-65
2022/09/21 03:40:49;;;;;;;;;1.00;1.00;28.60;99.90;;;;;;4975791;28;8985;-63
2022/09/21 03:43:19;;;;;;;;;1.00;1.00;28.50;99.90;;;;;;4974906;28;8893;-65
2022/09/21 03:45:49;;;;;;;;;1.00;1.00;28.50;99.90;;;;;;4978764;28;8898;-64
2022/09/21 03:48:20;;;;;;;;;1.00;1.00;28.40;99.90;;;;;;4974187;28;8847;-62
2022/09/21 03:50:51;;;;;;;;;1.00;1.00;28.40;99.90;;;;;;4977532;28;8866;-63
2022/09/21 03:53:22;;;;;;;;;1.00;1.00;28.50;99.90;;;;;;4976135;28;8856;-63
2022/09/21 03:55:52;;;;;;;;;1.00;1.00;28.50;99.90;;;;;;4977630;28;8997;-62
2022/09/21 03:58:23;;;;;;;;;1.40;1.40;28.50;99.90;;;;;;4976941;28;8843;-63
2022/09/21 04:00:54;;;;;;;;;1.00;1.00;28.50;99.90;;;;;;4974583;28;8850;-63
2022/09/21 04:03:26;;;;;;;;;0.40;0.40;28.50;99.90;;;;;;4979215;28;8869;-63
2022/09/21 04:05:56;;;;;;;;;1.20;1.20;28.40;99.90;;;;;;4975006;28;8869;-63
2022/09/21 04:08:32;;;;;;;;;1.00;1.00;28.40;99.90;;;;;;4971757;28;8855;-64
2022/09/21 04:11:13;;;;;;;;;0.80;0.80;28.30;99.90;;;;;;4979156;28;8857;-64
2022/09/21 04:13:48;;;;;;;;;0.60;0.60;28.20;99.90;;;;;;4974439;28;8870;-64
2022/09/21 04:16:20;;;;;;;;;1.00;1.00;28.20;99.90;;;;;;4993355;28;8843;-63
2022/09/21 04:18:55;;;;;;;;;1.00;1.00;28.30;99.90;;;;;;4980961;28;8862;-63
2022/09/21 04:21:25;;;;;;;;;1.00;1.00;28.20;99.90;;;;;;4982539;28;8917;-62
2022/09/21 04:23:57;;;;;;;;;2.80;1.00;28.20;99.90;;;;;;4971588;28;8872;-63
2022/09/21 04:26:33;;;;;;;;;1.20;1.20;28.20;99.90;;;;;;4977659;28;8866;-64
2022/09/21 04:29:04;;;;;;;;;0.80;0.80;28.20;99.90;;;;;;4978469;28;8842;-64
2022/09/21 04:31:36;;;;;;;;;1.00;1.00;28.10;99.90;;;;;;4983550;28;8945;-63
2022/09/21 04:34:07;;;;;;;;;1.80;1.80;28.10;99.90;;;;;;4975608;28;8841;-63
2022/09/21 04:36:38;;;;;;;;;0.80;0.80;28.10;99.90;;;;;;4975665;28;8861;-63
2022/09/21 04:39:08;;;;;;;;;2.80;1.20;28.10;99.90;;;;;;4977810;28;8866;-61
2022/09/21 04:41:40;;;;;;;;;1.00;1.00;28.00;99.90;;;;;;4970222;28;8858;-60
2022/09/21 04:44:13;;;;;;;;;0.00;0.00;27.90;99.90;;;;;;4975120;28;8885;-61
2022/09/21 04:46:47;;;;;;;;;0.80;0.80;28.00;99.90;;;;;;4977814;28;8909;-62
2022/09/21 04:49:17;;;;;;;;;2.00;2.00;28.00;99.90;;;;;;4977782;28;9567;-62
2022/09/21 04:51:47;;;;;;;;;2.00;1.20;27.90;99.90;;;;;;4978128;28;8842;-61
2022/09/21 04:54:17;;;;;;;;;1.20;1.20;27.90;99.90;;;;;;4956530;28;8861;-62
2022/09/21 04:56:48;;;;;;;;;2.00;2.00;27.90;99.90;;;;;;4977487;28;8912;-61
2022/09/21 04:59:22;;;;;;;;;0.80;0.80;27.80;99.90;;;;;;4972424;28;8885;-60
2022/09/21 05:01:53;;;;;;;;;1.00;1.00;27.80;99.90;;;;;;4980291;28;8892;-61
2022/09/21 05:04:26;;;;;;;;;1.00;1.00;27.70;99.90;;;;;;4974451;28;8889;-63
2022/09/21 05:07:00;;;;;;;;;0.20;0.20;27.70;99.90;;;;;;4975375;28;9359;-63
2022/09/21 05:12:20;;;;;;;;;1.20;1.20;27.60;99.90;;;;;;4987093;28;8897;-61
2022/09/21 05:14:54;;;;;;;;;1.20;1.20;27.60;99.90;;;;;;4978887;28;8838;-61
2022/09/21 05:17:28;;;;;;;;;1.00;1.00;27.50;99.90;;;;;;4973309;28;8845;-61
2022/09/21 05:19:58;;;;;;;;;1.00;1.00;27.50;99.90;;;;;;4971644;28;8882;-61
2022/09/21 05:22:28;;;;;;;;;1.00;1.00;27.40;99.90;;;;;;4979444;28;8911;-61
2022/09/21 05:24:59;;;;;;;;;1.00;1.00;27.40;99.90;;;;;;4974043;28;9581;-61
2022/09/21 05:27:31;;;;;;;;;1.00;1.00;27.40;99.90;;;;;;4974975;28;8868;-62
2022/09/21 05:30:02;;;;;;;;;1.80;1.00;27.30;99.90;;;;;;4981143;28;8891;-62
2022/09/21 05:32:52;;;;;;;;;1.00;1.00;27.30;99.90;;;;;;4980989;28;8871;-62
2022/09/21 05:35:32;;;;;;;;;2.00;2.00;27.20;99.90;;;;;;4973252;28;9077;-62
2022/09/21 05:38:12;;;;;;;;;1.00;1.00;27.20;99.90;;;;;;4976378;28;8891;-62
2022/09/21 05:40:49;;;;;;;;;1.40;1.40;27.30;99.90;;;;;;4975759;28;8885;-60
2022/09/21 05:43:19;;;;;;;;;1.00;1.00;27.20;99.90;;;;;;4972097;28;8857;-62
2022/09/21 05:46:02;;;;;;;;;0.60;0.60;27.20;99.90;;;;;;4970584;28;8961;-63
2022/09/21 05:48:42;;;;;;;;;1.00;1.00;27.20;99.90;;;;;;4973051;28;8965;-62
2022/09/21 05:51:57;;;;;;;;;2.00;2.00;27.10;99.90;;;;;;4995147;28;8878;-63
2022/09/21 05:54:48;;;;;;;;;1.80;1.80;27.10;99.90;;;;;;4975059;28;8909;-62
2022/09/21 05:57:33;;;;;;;;;1.00;1.00;27.10;99.90;;;;;;4976332;28;8869;-62
2022/09/21 06:00:16;;;;;;;;;1.00;1.00;27.00;99.90;;;;;;4977203;28;8846;-63
2022/09/21 06:03:09;;;;;;;;;1.00;1.00;27.00;99.90;;;;;;4974026;28;8885;-63
2022/09/21 06:05:46;;;;;;;;;1.60;1.60;27.00;99.90;;;;;;4992864;28;8876;-63
2022/09/21 06:08:18;;;;;;;;;0.40;0.40;26.90;99.90;;;;;;4972865;28;8868;-62
2022/09/21 06:10:51;;;;;;;;;1.60;1.60;26.90;99.90;;;;;;4975420;28;8858;-62
2022/09/21 06:13:22;;;;;;;;;2.00;2.00;26.80;99.90;;;;;;4974051;28;8861;-64
2022/09/21 06:15:53;;;;;;;;;1.40;1.40;26.80;99.90;;;;;;4973951;28;8881;-64
2022/09/21 06:18:25;;;;;;;;;3.20;2.00;26.80;99.90;;;;;;4972017;28;8888;-61
2022/09/21 06:20:55;;;;;;;;;1.60;1.60;26.80;99.90;;;;;;4973318;28;8858;-60
2022/09/21 06:23:26;;;;;;;;;1.00;1.00;26.70;99.90;;;;;;4972679;28;9657;-63
2022/09/21 06:25:58;;;;;;;;;1.00;1.00;26.60;99.90;;;;;;4973088;28;8874;-63
2022/09/21 06:28:29;;;;;;;;;0.00;0.00;26.60;99.90;;;;;;4974571;28;8882;-61
2022/09/21 06:31:03;;;;;;;;;1.00;1.00;26.50;99.90;;;;;;4978918;28;8911;-61
2022/09/21 06:33:34;;;;;;;;;1.40;1.40;26.60;99.90;;;;;;4974389;28;8872;-62
2022/09/21 06:36:05;;;;;;;;;0.60;0.60;26.50;99.90;;;;;;4973409;28;9565;-61
2022/09/21 06:38:35;;;;;;;;;2.00;2.00;26.50;99.90;;;;;;4974290;28;9470;-63
2022/09/21 06:41:05;;;;;;;;;1.00;1.00;26.50;99.90;;;;;;4971150;28;8881;-63
2022/09/21 06:43:36;;;;;;;;;1.60;1.60;26.50;99.90;;;;;;4981393;28;8831;-61
2022/09/21 06:46:06;;;;;;;;;1.80;1.80;26.50;99.90;;;;;;4983636;28;8880;-62
2022/09/21 06:48:37;;;;;;;;;2.00;2.00;26.40;99.90;;;;;;4981215;28;8898;-63
2022/09/21 06:51:06;;;;;;;;;1.60;1.60;26.30;99.90;;;;;;4983755;28;8844;-64
2022/09/21 06:53:38;;;;;;;;;1.00;1.00;26.30;99.90;;;;;;4982792;28;8842;-64
2022/09/21 06:56:11;;;;;;;;;1.00;1.00;26.20;99.90;;;;;;4965233;28;8894;-64
2022/09/21 06:58:41;;;;;;;;;1.00;1.00;26.20;99.90;;;;;;4982729;28;9614;-64
2022/09/21 07:01:13;;;;;;;;;1.80;1.80;26.20;99.90;;;;;;4981015;28;8917;-63
2022/09/21 07:03:44;;;;;;;;;3.00;3.00;26.20;99.90;;;;;;4978050;28;9004;-62
2022/09/21 07:06:14;;;;;;;;;1.80;1.80;26.10;99.90;;;;;;4979083;28;8847;-61
2022/09/21 07:08:47;;;;;;;;;2.80;1.80;26.10;99.90;;;;;;4976896;28;9660;-64
2022/09/21 07:11:40;;;;;;;;;2.00;2.00;26.10;99.90;;;;;;4973013;28;8879;-64
2022/09/21 07:14:13;;;;;;;;;2.00;2.00;26.00;99.90;;;;;;4975191;28;8889;-61
2022/09/21 07:16:44;;;;;;;;;1.60;1.60;26.10;99.90;;;;;;4976456;28;8893;-61
2022/09/21 07:19:18;;;;;;;;;2.60;2.60;26.00;99.90;;;;;;4979549;28;8876;-62
2022/09/21 07:21:47;;;;;;;;;3.60;2.00;26.10;99.90;;;;;;4974610;28;8912;-61
2022/09/21 07:24:20;;;;;;;;;1.20;1.20;26.10;99.90;;;;;;4979295;28;8858;-64
2022/09/21 07:26:55;;;;;;;;;2.00;2.00;26.00;99.90;;;;;;4975417;28;8881;-63
2022/09/21 07:29:26;;;;;;;;;2.00;2.00;26.00;99.90;;;;;;4976674;28;8866;-62
2022/09/21 07:31:58;;;;;;;;;2.00;2.00;26.00;99.90;;;;;;4973644;28;8919;-61
2022/09/21 07:34:30;;;;;;;;;3.60;3.60;26.00;99.90;;;;;;4983057;28;8846;-64
2022/09/21 07:37:00;;;;;;;;;2.60;2.60;26.00;99.90;;;;;;4975776;28;8843;-64
2022/09/21 07:39:30;;;;;;;;;2.00;2.00;26.00;99.90;;;;;;4973933;28;9629;-64
2022/09/21 07:42:02;;;;;;;;;2.00;2.00;25.90;99.90;;;;;;4973022;28;10586;-64
2022/09/21 07:44:33;;;;;;;;;2.00;2.00;25.80;99.90;;;;;;4979193;28;8874;-64
2022/09/21 07:47:05;;;;;;;;;3.00;3.00;25.80;99.90;;;;;;4973805;28;8850;-63
2022/09/21 07:49:37;;;;;;;;;2.00;2.00;25.90;99.90;;;;;;4980405;28;8974;-63
2022/09/21 07:52:07;;;;;;;;;2.00;2.00;25.70;99.90;;;;;;4978969;28;8871;-63
2022/09/21 07:54:39;;;;;;;;;1.20;1.20;25.70;99.90;;;;;;4975389;28;8850;-61
2022/09/21 08:00:01;;;;;;;;;1.60;1.60;25.70;99.90;;;;;;4979449;28;9927;-64
2022/09/21 08:02:39;;;;;;;;;2.60;2.60;25.60;99.90;;;;;;4979353;28;9607;-63
2022/09/21 08:05:16;;;;;;;;;2.00;2.00;25.50;99.90;;;;;;4980088;28;9629;-64
2022/09/21 08:07:47;;;;;;;;;2.60;2.60;25.60;99.90;;;;;;4977122;28;8866;-64
2022/09/21 08:10:18;;;;;;;;;3.00;3.00;25.60;99.90;;;;;;4979038;28;8909;-61
2022/09/21 08:12:49;;;;;;;;;2.00;2.00;25.60;99.90;;;;;;4972119;28;10263;-61
2022/09/21 08:15:22;;;;;;;;;1.60;1.60;25.60;99.90;;;;;;4982008;28;8867;-60
2022/09/21 08:18:15;;;;;;;;;2.00;2.00;25.50;99.90;;;;;;4986318;28;8877;-61
2022/09/21 08:20:55;;;;;;;;;3.00;3.00;25.50;99.90;;;;;;4972511;28;8862;-62
2022/09/21 08:23:27;;;;;;;;;1.20;1.20;25.50;99.90;;;;;;4974929;28;8854;-60
2022/09/21 08:26:04;;;;;;;;;2.00;2.00;25.40;99.90;;;;;;4975964;28;8844;-61
2022/09/21 08:28:37;;;;;;;;;2.60;2.60;25.30;99.90;;;;;;4988099;28;8853;-61
2022/09/21 08:31:09;;;;;;;;;1.60;1.60;25.20;99.90;;;;;;4975487;28;9887;-60
2022/09/21 08:33:38;;;;;;;;;3.00;3.00;25.20;99.90;;;;;;4989864;28;8901;-61
2022/09/21 08:36:09;;;;;;;;;2.00;2.00;25.30;99.90;;;;;;4975236;28;8869;-61
2022/09/21 08:38:40;;;;;;;;;2.00;2.00;25.30;99.90;;;;;;4975477;28;9518;-64
2022/09/21 08:41:49;;;;;;;;;2.40;2.40;25.30;99.90;;;;;;4971022;28;8896;-63
2022/09/21 08:44:46;;;;;;;;;1.80;1.00;25.20;99.90;;;;;;4975628;28;8889;-60
2022/09/21 08:47:29;;;;;;;;;2.20;2.20;25.20;99.90;;;;;;4968031;28;8917;-60
2022/09/21 08:50:03;;;;;;;;;2.40;2.40;25.20;99.90;;;;;;4961543;28;8852;-61
2022/09/21 08:52:34;;;;;;;;;3.60;3.60;25.20;99.90;;;;;;4953597;28;8909;-61
2022/09/21 08:55:19;;;;;;;;;2.00;2.00;25.10;99.90;;;;;;4965336;28;9634;-61
2022/09/21 08:57:49;;;;;;;;;1.00;1.00;25.00;99.90;;;;;;4969831;28;8873;-60
2022/09/21 09:00:21;;;;;;;;;0.40;0.40;25.00;99.90;;;;;;4971071;28;8867;-60
2022/09/21 09:03:11;;;;;;;;;2.20;2.20;25.10;99.90;;;;;;4971379;28;8863;-61
2022/09/21 09:06:14;;;;;;;;;2.20;2.20;25.10;99.90;;;;;;4970188;28;10088;-63
2022/09/21 09:09:02;;;;;;;;;3.00;3.00;24.90;99.90;;;;;;4970459;28;8881;-61
2022/09/21 09:11:55;;;;;;;;;2.40;1.60;24.90;99.90;;;;;;4969407;28;8838;-62
2022/09/21 09:14:47;;;;;;;;;3.00;3.00;24.80;99.90;;;;;;4975891;28;8846;-63
2022/09/21 09:17:27;;;;;;;;;3.00;3.00;24.80;99.90;;;;;;4980898;28;8835;-63
2022/09/21 09:20:04;;;;;;;;;2.75;2.75;24.80;99.90;;;;;;4969608;28;8896;-64
2022/09/21 09:23:02;;;;;;;;;1.80;1.80;24.90;99.90;;;;;;4970891;28;9690;-64
2022/09/21 09:25:44;;;;;;;;;3.00;3.00;24.90;99.90;;;;;;4983897;28;9020;-61
2022/09/21 09:28:37;;;;;;;;;3.00;3.00;24.80;99.90;;;;;;4966621;28;8897;-63
2022/09/21 09:31:28;;;;;;;;;2.00;2.00;24.90;99.90;;;;;;4989641;28;8846;-63
2022/09/21 09:34:02;;;;;;;;;1.40;1.40;24.60;99.90;;;;;;4969823;28;8839;-60
2022/09/21 09:36:33;;;;;;;;;1.80;1.80;24.50;99.90;;;;;;4972122;28;8830;-62
2022/09/21 09:39:25;;;;;;;;;2.00;2.00;24.60;99.90;;;;;;4976649;28;8862;-63
2022/09/21 09:42:33;;;;;;;;;4.00;4.00;24.50;99.90;;;;;;4976569;28;8901;-64
2022/09/21 09:45:22;;;;;;;;;2.00;2.00;24.50;99.90;;;;;;4966148;28;8855;-63
2022/09/21 09:48:13;;;;;;;;;3.00;3.00;24.50;99.90;;;;;;4969863;28;8861;-63
2022/09/21 09:50:44;;;;;;;;;2.20;2.20;24.50;99.90;;;;;;4971941;28;8842;-61
2022/09/21 09:53:22;;;;;;;;;1.80;1.80;24.60;99.90;;;;;;4975522;28;8881;-61
2022/09/21 09:55:56;;;;;;;;;2.25;2.25;24.50;99.90;;;;;;4967379;28;8851;-61
2022/09/21 09:58:46;;;;;;;;;3.00;3.00;24.40;99.90;;;;;;4979681;28;8877;-61
2022/09/21 10:01:37;;;;;;;;;2.00;2.00;24.40;99.90;;;;;;4972046;28;8893;-60
2022/09/21 10:04:14;;;;;;;;;2.50;2.50;24.20;99.90;;;;;;4979136;28;9317;-63
2022/09/21 10:06:45;;;;;;;;;2.75;2.75;24.30;99.90;;;;;;4972942;28;8894;-63
2022/09/21 10:09:34;;;;;;;;;3.00;3.00;24.30;99.90;;;;;;4963058;28;8912;-60
2022/09/21 10:12:24;;;;;;;;;2.25;2.25;24.30;99.90;;;;;;4975052;28;8869;-60
2022/09/21 10:15:00;;;;;;;;;3.75;3.75;24.30;99.90;;;;;;4972069;28;8899;-64
2022/09/21 10:17:29;;;;;;;;;3.25;3.25;24.30;99.90;;;;;;4971440;28;9621;-64
2022/09/21 10:20:02;;;;;;;;;2.00;2.00;24.30;99.90;;;;;;4970380;28;8854;-64
2022/09/21 10:22:34;;;;;;;;;3.25;3.25;24.30;99.90;;;;;;4970350;28;8854;-64
2022/09/21 10:25:14;;;;;;;;;3.00;3.00;24.20;99.90;;;;;;4964169;28;8901;-64
2022/09/21 10:27:47;;;;;;;;;3.25;3.25;24.10;99.90;;;;;;4982075;28;8866;-63
2022/09/21 10:30:29;;;;;;;;;2.75;2.75;24.10;99.90;;;;;;4959661;28;8885;-61
2022/09/21 10:33:00;;;;;;;;;3.00;3.00;24.20;99.90;;;;;;4984483;28;8858;-63
2022/09/21 10:35:29;;;;;;;;;4.40;2.20;24.10;99.90;;;;;;4968676;28;8928;-65
2022/09/21 10:38:20;;;;;;;;;3.40;3.00;24.10;99.90;;;;;;4972947;28;8842;-65
2022/09/21 10:40:50;;;;;;;;;3.00;3.00;24.10;99.90;;;;;;4971400;28;8826;-64
2022/09/21 10:43:50;;;;;;;;;3.40;3.40;24.00;99.90;;;;;;4972565;28;8881;-60
2022/09/21 10:46:35;;;;;;;;;4.00;4.00;24.00;99.90;;;;;;4976318;28;8842;-60
2022/09/21 10:49:21;;;;;;;;;4.00;4.00;23.90;99.90;;;;;;4968413;28;8878;-64
2022/09/21 10:51:56;;;;;;;;;4.50;3.75;23.90;99.90;;;;;;4963915;28;9011;-65
2022/09/21 10:54:32;;;;;;;;;3.25;3.25;23.90;99.90;;;;;;4972330;28;8997;-65
2022/09/21 10:57:09;;;;;;;;;3.25;3.25;23.90;99.90;;;;;;4967078;28;8882;-64
2022/09/21 10:59:41;;;;;;;;;4.50;3.00;23.90;99.90;;;;;;4969719;28;8873;-60
2022/09/21 11:02:32;;;;;;;;;3.25;3.25;23.70;99.90;;;;;;4967406;28;8870;-61
2022/09/21 11:05:04;;;;;;;;;5.00;5.00;23.90;99.90;;;;;;4968391;28;9555;-64
2022/09/21 11:07:52;;;;;;;;;3.25;3.25;23.90;99.90;;;;;;4960870;28;9365;-64
2022/09/21 11:11:22;;;;;;;;;3.00;3.00;23.80;99.90;;;;;;4975817;28;9654;-61
2022/09/21 11:14:00;;;;;;;;;4.00;2.50;23.90;99.90;;;;;;4976231;28;8852;-61
2022/09/21 11:16:40;;;;;;;;;5.00;4.00;23.80;99.90;;;;;;4972200;28;8847;-61
2022/09/21 11:19:30;;;;;;;;;2.20;2.20;23.80;99.90;;;;;;4960052;28;8878;-64
2022/09/21 11:22:01;;;;;;;;;3.75;3.75;23.80;99.90;;;;;;4970943;28;8901;-63
2022/09/21 11:24:43;;;;;;;;;3.25;3.25;23.90;99.90;;;;;;4971369;28;10583;-64
2022/09/21 11:27:38;;;;;;;;;6.00;4.00;23.80;99.90;;;;;;4972909;28;8896;-64
2022/09/21 11:30:14;;;;;;;;;4.00;4.00;23.80;99.90;;;;;;4970797;28;8825;-64
2022/09/21 11:33:06;;;;;;;;;2.50;2.50;23.70;99.90;;;;;;4973909;28;9653;-64
2022/09/21 11:35:40;;;;;;;;;3.25;3.00;23.70;99.90;;;;;;4980416;28;8846;-64
2022/09/21 11:38:43;;;;;;;;;3.00;3.00;23.70;99.90;;;;;;4982734;28;8928;-61
2022/09/21 11:41:27;;;;;;;;;2.00;2.00;23.70;99.90;;;;;;4974811;28;9591;-61
2022/09/21 11:44:16;;;;;;;;;4.00;4.00;23.60;99.90;;;;;;4964592;28;8908;-63
2022/09/21 11:47:12;;;;;;;;;4.00;4.00;23.60;99.90;;;;;;4984502;28;8843;-62
2022/09/21 11:50:16;;;;;;;;;4.00;4.00;23.50;99.90;;;;;;4969032;28;8849;-59
2022/09/21 11:53:10;;;;;;;;;3.75;3.75;23.50;99.90;;;;;;4974205;28;9598;-62
2022/09/21 11:56:09;;;;;;;;;3.00;3.00;23.50;99.90;;;;;;4969435;28;8877;-60
2022/09/21 11:59:12;;;;;;;;;5.25;5.25;23.60;99.90;;;;;;4973888;28;8874;-64
2022/09/21 12:02:11;;;;;;;;;4.25;4.25;23.50;99.90;;;;;;4972933;28;8878;-63
2022/09/21 12:04:54;;;;;;;;;5.25;5.25;23.50;99.90;;;;;;4987126;28;9041;-61
2022/09/21 12:07:29;;;;;;;;;4.75;4.75;23.40;99.90;;;;;;4970370;28;8850;-61
2022/09/21 12:10:04;;;;;;;;;5.00;5.00;23.50;99.90;;;;;;4973493;28;9035;-63
2022/09/21 12:13:31;;;;;;;;;5.75;4.75;23.40;99.90;;;;;;4970887;28;8826;-63
2022/09/21 12:16:05;;;;;;;;;6.00;4.50;23.40;99.90;;;;;;4983127;28;8838;-62
2022/09/21 12:19:06;;;;;;;;;4.50;4.50;23.40;99.90;;;;;;4988809;28;8998;-61
2022/09/21 12:21:50;;;;;;;;;5.25;5.25;23.40;99.90;;;;;;4975171;28;8902;-60
2022/09/21 12:24:32;;;;;;;;;3.00;3.00;23.40;99.90;;;;;;4968596;28;8865;-61
2022/09/21 12:27:48;;;;;;;;;3.25;3.25;23.30;99.90;;;;;;4975796;28;9050;-60
2022/09/21 12:30:24;;;;;;;;;2.00;2.00;23.30;99.90;;;;;;4984802;28;8854;-62
2022/09/21 12:33:42;;;;;;;;;5.00;5.00;23.20;99.90;;;;;;4995821;28;9013;-65
2022/09/21 12:36:36;;;;;;;;;5.25;5.25;23.20;99.90;;;;;;4973391;28;8877;-64
2022/09/21 12:39:33;;;;;;;;;5.00;5.00;23.20;99.90;;;;;;4983536;28;8858;-63
2022/09/21 12:42:21;;;;;;;;;5.25;5.25;23.20;99.90;;;;;;4976164;28;8882;-64
2022/09/21 12:44:58;;;;;;;;;5.50;5.50;23.20;99.90;;;;;;4971814;28;8869;-64
2022/09/21 12:47:56;;;;;;;;;4.25;4.25;23.30;99.90;;;;;;4969197;28;8836;-65
2022/09/21 12:50:56;;;;;;;;;6.00;6.00;23.40;99.90;;;;;;4969611;28;8877;-61
2022/09/21 12:53:37;;;;;;;;;4.50;4.50;23.40;99.90;;;;;;4975904;28;8846;-63
2022/09/21 12:56:37;;;;;;;;;4.25;4.25;23.50;99.90;;;;;;4973885;28;8904;-64
2022/09/21 12:59:42;;;;;;;;;4.25;4.25;23.60;99.90;;;;;;4976484;28;8850;-66
2022/09/21 13:02:55;;;;;;;;;4.00;4.00;23.60;99.90;;;;;;4981039;28;8902;-64
2022/09/21 13:05:27;;;;;;;;;4.33;4.33;23.70;99.90;;;;;;4969156;28;8890;-64
2022/09/21 13:08:27;;;;;;;;;4.75;4.75;23.80;99.90;;;;;;4969888;28;8859;-61
2022/09/21 13:11:00;;;;;;;;;5.00;5.00;23.90;99.90;;;;;;4966623;28;8863;-61
2022/09/21 13:13:53;;;;;;;;;4.25;4.25;23.90;99.90;;;;;;4974054;28;8866;-61
2022/09/21 13:16:37;;;;;;;;;5.25;5.25;24.00;99.90;;;;;;4977011;28;8878;-61
2022/09/21 13:19:13;;;;;;;;;4.67;3.67;24.10;99.90;;;;;;4962463;28;8850;-62
2022/09/21 13:21:43;;;;;;;;;3.50;3.50;24.20;99.90;;;;;;4985603;28;8974;-62
2022/09/21 13:24:28;;;;;;;;;4.00;4.00;24.20;99.90;;;;;;4969606;28;8895;-61
2022/09/21 13:27:03;;;;;;;;;3.00;3.00;24.30;99.90;;;;;;4974209;28;9845;-65
2022/09/21 13:29:39;;;;;;;;;4.00;4.00;24.30;99.90;;;;;;4972227;28;8891;-61
2022/09/21 13:32:14;;;;;;;;;3.25;3.25;24.40;99.90;;;;;;4966181;28;8989;-61
2022/09/21 13:34:46;;;;;;;;;4.00;4.00;24.50;99.90;;;;;;4970732;28;8865;-61
2022/09/21 13:37:19;;;;;;;;;4.75;4.75;24.60;99.90;;;;;;4965740;28;8858;-60
2022/09/21 13:40:03;;;;;;;;;4.50;4.50;24.70;99.90;;;;;;4971235;28;9631;-62
2022/09/21 13:42:33;;;;;;;;;1.75;1.75;24.70;99.90;;;;;;4974453;28;8854;-63
2022/09/21 13:45:14;;;;;;;;;1.00;1.00;24.80;99.90;;;;;;4968935;28;9693;-59
2022/09/21 13:47:58;;;;;;;;;4.00;4.00;24.80;99.90;;;;;;4975865;28;8893;-63
2022/09/21 13:50:41;;;;;;;;;2.25;2.25;25.00;99.90;;;;;;4962969;28;8854;-63
2022/09/21 13:53:22;;;;;;;;;5.00;5.00;25.10;99.90;;;;;;4987073;28;9441;-62
2022/09/21 13:56:00;;;;;;;;;3.75;3.75;25.20;99.90;;;;;;4965296;28;8833;-63
2022/09/21 13:58:39;;;;;;;;;3.00;3.00;25.20;99.90;;;;;;4974213;28;8850;-62
2022/09/21 14:01:31;;;;;;;;;4.00;4.00;25.30;99.90;;;;;;4970370;28;8888;-61
2022/09/21 14:04:27;;;;;;;;;2.75;2.75;25.40;99.90;;;;;;4967451;28;8886;-62
2022/09/21 14:07:02;;;;;;;;;4.00;4.00;25.40;99.90;;;;;;4969187;28;8861;-63
2022/09/21 14:10:02;;;;;;;;;5.00;3.50;25.50;99.90;;;;;;4969136;28;8863;-62